Time;durP1;ratioP1;P1;durP2;ratioP2;P2;SDS_P1;SDS_P2;PMS_P1;PMS_P2;Temp;Humidity;BMP_temperature;BMP_pressure;BME280_temperature;BME280_humidity;BME280_pressure;Samples;Min_cycle;Max_cycle;Signal;HPM_P1;HPM_P2
2022/08/18 00:02:01;;;;;;;45.47;41.17;;;;;;;-150.27;100.00;61272.81;5318731;28;20080;-71
2022/08/18 00:04:37;;;;;;;43.97;39.77;;;;;;;-150.27;100.00;61272.81;5320992;27;20114;-70
2022/08/18 00:07:15;;;;;;;45.83;39.30;;;;;;;-150.27;100.00;61272.81;5320596;27;20015;-70
2022/08/18 00:09:46;;;;;;;45.30;41.13;;;;;;;-150.27;100.00;61272.81;5321275;27;20030;-71
2022/08/18 00:12:34;;;;;;;44.07;39.87;;;;;;;-150.27;100.00;61272.81;5320160;27;20483;-71
2022/08/18 00:15:09;;;;;;;44.50;40.60;;;;;;;-150.27;100.00;61272.81;5319711;28;20034;-71
2022/08/18 00:17:41;;;;;;;44.60;40.43;;;;;;;-150.27;100.00;61272.81;5319845;28;20038;-71
2022/08/18 00:20:19;;;;;;;45.77;41.77;;;;;;;-150.27;100.00;61272.81;5321264;27;20023;-70
2022/08/18 00:22:50;;;;;;;48.23;43.40;;;;;;;-150.27;100.00;61272.81;5319141;28;20035;-70
2022/08/18 00:25:23;;;;;;;45.07;41.00;;;;;;;-150.27;100.00;61272.81;5319926;27;20027;-70
2022/08/18 00:27:54;;;;;;;44.85;40.50;;;;;;;-150.27;100.00;61272.81;5320809;27;20023;-70
2022/08/18 00:30:25;;;;;;;44.88;40.55;;;;;;;-150.27;100.00;61272.81;5321376;27;20057;-70
2022/08/18 00:32:58;;;;;;;45.33;41.07;;;;;;;-150.27;100.00;61272.81;5323748;27;20031;-70
2022/08/18 00:35:33;;;;;;;46.00;41.53;;;;;;;-150.27;100.00;61272.81;5320435;27;20091;-70
2022/08/18 00:38:07;;;;;;;45.60;41.43;;;;;;;-150.27;100.00;61272.81;5319232;28;20076;-70
2022/08/18 00:40:56;;;;;;;46.08;41.45;;;;;;;-150.27;100.00;61272.81;5320464;27;20111;-70
2022/08/18 00:43:38;;;;;;;43.67;39.70;;;;;;;-150.27;100.00;61272.81;5320343;27;20540;-70
2022/08/18 00:46:18;;;;;;;44.87;40.67;;;;;;;-150.27;100.00;61272.81;5320193;27;20024;-70
2022/08/18 00:48:51;;;;;;;43.83;39.60;;;;;;;-150.27;100.00;61272.81;5320868;27;20027;-70
2022/08/18 00:51:28;;;;;;;46.08;41.42;;;;;;;-150.27;100.00;61272.81;5320404;27;20395;-71
2022/08/18 00:54:05;;;;;;;42.07;38.23;;;;;;;-150.27;100.00;61272.81;5320814;27;20076;-70
2022/08/18 00:56:41;;;;;;;44.95;40.17;;;;;;;-150.27;100.00;61272.81;5318346;27;20024;-70
2022/08/18 00:59:19;;;;;;;45.67;41.07;;;;;;;-150.27;100.00;61272.81;5316984;28;20107;-70
2022/08/18 01:01:54;;;;;;;43.43;39.17;;;;;;;-150.27;100.00;61272.81;5314540;28;20391;-71
2022/08/18 01:05:02;;;;;;;42.40;38.23;;;;;;;-150.27;100.00;61272.81;5297681;22;20076;-70
2022/08/18 01:07:43;;;;;;;41.23;37.40;;;;;;;-150.27;100.00;61272.81;5209369;28;20130;-71
2022/08/18 01:10:18;;;;;;;42.00;37.90;;;;;;;-150.27;100.00;61272.81;5271387;28;20071;-71
2022/08/18 01:12:52;;;;;;;42.97;38.87;;;;;;;-150.27;100.00;61272.81;5274777;28;20025;-71
2022/08/18 01:15:26;;;;;;;42.85;38.38;;;;;;;-150.27;100.00;61272.81;5274360;28;20400;-71
2022/08/18 01:24:07;;;;;;;41.80;37.80;;;;;;;-150.27;100.00;61272.81;5274165;28;20348;-70
2022/08/18 01:26:45;;;;;;;39.80;36.13;;;;;;;-150.27;100.00;61272.81;5277332;28;20025;-70
2022/08/18 01:29:18;;;;;;;41.20;37.40;;;;;;;-150.27;100.00;61272.81;5274731;28;20020;-70
2022/08/18 01:31:54;;;;;;;40.03;36.20;;;;;;;-150.27;100.00;61272.81;5273507;28;20502;-71
2022/08/18 01:34:27;;;;;;;41.60;37.43;;;;;;;-150.27;100.00;61272.81;5273954;28;20503;-71
2022/08/18 01:36:58;;;;;;;39.67;35.90;;;;;;;-150.27;100.00;61272.81;5274306;28;20048;-71
2022/08/18 01:39:30;;;;;;;38.17;34.20;;;;;;;-150.27;100.00;61272.81;5273819;28;20473;-70
2022/08/18 01:42:03;;;;;;;40.10;36.30;;;;;;;-150.27;100.00;61272.81;5273773;28;20029;-70
2022/08/18 01:44:35;;;;;;;39.78;36.15;;;;;;;-150.27;100.00;61272.81;5273769;28;20077;-70
2022/08/18 01:47:09;;;;;;;38.50;35.10;;;;;;;-150.27;100.00;61272.81;5273365;28;20560;-70
2022/08/18 01:49:41;;;;;;;39.57;35.83;;;;;;;-150.27;100.00;61272.81;5273624;28;20052;-70
2022/08/18 01:52:18;;;;;;;40.93;37.17;;;;;;;-150.27;100.00;61272.81;5274104;28;20468;-70
2022/08/18 01:54:50;;;;;;;41.60;37.40;;;;;;;-150.27;100.00;61272.81;5274089;28;20511;-71
2022/08/18 01:57:23;;;;;;;39.30;35.43;;;;;;;-150.27;100.00;61272.81;5273478;28;20045;-70
2022/08/18 01:59:54;;;;;;;38.43;34.73;;;;;;;-150.27;100.00;61272.81;5273910;28;20028;-71
2022/08/18 02:02:31;;;;;;;37.53;34.10;;;;;;;-150.27;100.00;61272.81;5272231;28;20025;-70
2022/08/18 02:05:09;;;;;;;37.73;34.43;;;;;;;-150.27;100.00;61272.81;5273916;28;20051;-70
2022/08/18 02:07:40;;;;;;;39.27;35.57;;;;;;;-150.27;100.00;61272.81;5272824;28;20032;-70
2022/08/18 02:10:12;;;;;;;36.80;33.10;;;;;;;-150.27;100.00;61272.81;5273845;28;20033;-70
2022/08/18 02:12:44;;;;;;;39.60;35.50;;;;;;;-150.27;100.00;61272.81;5254598;28;20516;-72
2022/08/18 02:15:15;;;;;;;35.57;32.07;;;;;;;-150.27;100.00;61272.81;5273390;28;20031;-71
2022/08/18 02:17:47;;;;;;;36.23;32.80;;;;;;;-150.27;100.00;61272.81;5272023;28;20036;-71
2022/08/18 02:20:19;;;;;;;38.50;34.13;;;;;;;-150.27;100.00;61272.81;5255293;28;20257;-71
2022/08/18 02:22:50;;;;;;;34.93;31.53;;;;;;;-150.27;100.00;61272.81;5255532;28;20111;-70
2022/08/18 02:25:22;;;;;;;38.03;34.17;;;;;;;-150.27;100.00;61272.81;5272749;28;20021;-70
2022/08/18 02:27:53;;;;;;;36.13;32.83;;;;;;;-150.27;100.00;61272.81;5273624;28;20016;-71
2022/08/18 02:30:24;;;;;;;35.27;32.07;;;;;;;-150.27;100.00;61272.81;5271775;28;20071;-70
2022/08/18 02:33:00;;;;;;;38.67;35.07;;;;;;;-150.27;100.00;61272.81;5255138;28;20034;-70
2022/08/18 02:35:32;;;;;;;35.80;32.17;;;;;;;-150.27;100.00;61272.81;5272472;28;20016;-70
2022/08/18 02:38:05;;;;;;;34.67;31.37;;;;;;;-150.27;100.00;61272.81;5273137;28;20023;-70
2022/08/18 02:40:38;;;;;;;37.53;33.70;;;;;;;-150.27;100.00;61272.81;5272266;28;20020;-71
2022/08/18 02:43:09;;;;;;;37.10;33.57;;;;;;;-150.27;100.00;61272.81;5272798;28;20101;-70
2022/08/18 02:45:40;;;;;;;34.97;31.77;;;;;;;-150.27;100.00;61272.81;5272050;28;20029;-70
2022/08/18 02:48:12;;;;;;;34.47;30.97;;;;;;;-150.27;100.00;61272.81;5254675;28;20032;-70
2022/08/18 02:50:45;;;;;;;35.60;31.93;;;;;;;-150.27;100.00;61272.81;5237326;28;20029;-71
2022/08/18 02:53:21;;;;;;;35.70;32.07;;;;;;;-150.27;100.00;61272.81;5272235;28;20040;-71
2022/08/18 02:55:52;;;;;;;34.57;31.20;;;;;;;-150.27;100.00;61272.81;5272840;28;20029;-71
2022/08/18 02:58:23;;;;;;;36.10;32.50;;;;;;;-150.27;100.00;61272.81;5255077;28;20012;-70
2022/08/18 03:00:54;;;;;;;37.47;33.57;;;;;;;-150.27;100.00;61272.81;5275556;28;20024;-70
2022/08/18 03:03:26;;;;;;;41.77;33.30;;;;;;;-150.27;100.00;61272.81;5256459;28;20055;-70
2022/08/18 03:05:57;;;;;;;34.90;31.47;;;;;;;-150.27;100.00;61272.81;5254528;28;20085;-71
2022/08/18 03:08:28;;;;;;;36.67;33.17;;;;;;;-150.27;100.00;61272.81;5255648;28;20021;-70
2022/08/18 03:10:59;;;;;;;35.87;32.00;;;;;;;-150.27;100.00;61272.81;5275029;28;20453;-71
2022/08/18 03:13:32;;;;;;;35.83;32.27;;;;;;;-150.27;100.00;61272.81;5272254;28;20048;-70
2022/08/18 03:16:03;;;;;;;36.23;32.50;;;;;;;-150.27;100.00;61272.81;5271134;28;20031;-71
2022/08/18 03:18:35;;;;;;;37.43;33.83;;;;;;;-150.27;100.00;61272.81;5254520;28;20039;-70
2022/08/18 03:21:08;;;;;;;36.07;32.77;;;;;;;-150.27;100.00;61272.81;5271248;28;20025;-70
2022/08/18 03:23:40;;;;;;;36.03;32.72;;;;;;;-150.27;100.00;61272.81;5272049;28;20093;-70
2022/08/18 03:26:14;;;;;;;36.67;33.13;;;;;;;-150.27;100.00;61272.81;5272553;28;20024;-70
2022/08/18 03:28:48;;;;;;;35.93;32.53;;;;;;;-150.27;100.00;61272.81;5272407;28;20033;-71
2022/08/18 03:31:22;;;;;;;34.22;30.75;;;;;;;-150.27;100.00;61272.81;5253061;28;20086;-70
2022/08/18 03:33:56;;;;;;;35.53;32.22;;;;;;;-150.27;100.00;61272.81;5272136;28;20485;-71
2022/08/18 03:36:30;;;;;;;35.25;31.95;;;;;;;-150.27;100.00;61272.81;5271687;28;20032;-70
2022/08/18 03:39:08;;;;;;;35.17;31.43;;;;;;;-150.27;100.00;61272.81;5271907;28;20039;-70
2022/08/18 03:41:44;;;;;;;33.97;31.00;;;;;;;-150.27;100.00;61272.81;5271890;28;20091;-70
2022/08/18 03:44:16;;;;;;;37.17;33.53;;;;;;;-150.27;100.00;61272.81;5253264;28;20020;-71
2022/08/18 03:46:49;;;;;;;35.63;32.13;;;;;;;-150.27;100.00;61272.81;5271137;28;20516;-71
2022/08/18 03:49:20;;;;;;;36.10;32.60;;;;;;;-150.27;100.00;61272.81;5271239;28;20029;-70
2022/08/18 03:51:51;;;;;;;36.03;32.50;;;;;;;-150.27;100.00;61272.81;5271576;28;20412;-71
2022/08/18 03:54:23;;;;;;;34.63;31.17;;;;;;;-150.27;100.00;61272.81;5271403;28;20020;-71
2022/08/18 03:56:54;;;;;;;36.60;32.70;;;;;;;-150.27;100.00;61272.81;5271693;28;20450;-70
2022/08/18 03:59:30;;;;;;;33.37;30.17;;;;;;;-150.27;100.00;61272.81;5271769;28;20033;-70
2022/08/18 04:02:03;;;;;;;34.43;31.33;;;;;;;-150.27;100.00;61272.81;5270706;28;20047;-70
2022/08/18 04:04:35;;;;;;;35.90;32.20;;;;;;;-150.27;100.00;61272.81;5271495;28;20043;-70
2022/08/18 04:07:09;;;;;;;35.93;32.20;;;;;;;-150.27;100.00;61272.81;5262227;28;20025;-70
2022/08/18 04:09:41;;;;;;;36.30;33.00;;;;;;;-150.27;100.00;61272.81;5271715;28;20070;-70
2022/08/18 04:12:14;;;;;;;36.33;32.50;;;;;;;-150.27;100.00;61272.81;5270390;28;20104;-70
2022/08/18 04:14:47;;;;;;;34.13;30.67;;;;;;;-150.27;100.00;61272.81;5271973;28;20027;-71
2022/08/18 04:17:23;;;;;;;35.80;32.30;;;;;;;-150.27;100.00;61272.81;5270368;28;20107;-71
2022/08/18 04:19:55;;;;;;;38.53;34.53;;;;;;;-150.27;100.00;61272.81;5270782;28;20028;-71
2022/08/18 04:22:26;;;;;;;40.27;35.97;;;;;;;-150.27;100.00;61272.81;5260813;28;20025;-70
2022/08/18 04:24:59;;;;;;;38.47;34.57;;;;;;;-150.27;100.00;61272.81;5259972;28;20017;-70
2022/08/18 04:27:31;;;;;;;40.23;36.27;;;;;;;-150.27;100.00;61272.81;5260180;28;20036;-71
2022/08/18 04:30:02;;;;;;;40.07;35.50;;;;;;;-150.27;100.00;61272.81;5267709;28;20025;-69
2022/08/18 04:32:34;;;;;;;40.13;36.23;;;;;;;-150.27;100.00;61272.81;5254983;28;20024;-70
2022/08/18 04:35:06;;;;;;;40.87;36.70;;;;;;;-150.27;100.00;61272.81;5257298;28;20029;-70
2022/08/18 04:37:37;;;;;;;40.20;36.10;;;;;;;-150.27;100.00;61272.81;5275597;28;20694;-70
2022/08/18 04:40:09;;;;;;;44.03;39.27;;;;;;;-150.27;100.00;61272.81;5244870;28;20056;-70
2022/08/18 04:42:41;;;;;;;42.13;37.97;;;;;;;-150.27;100.00;61272.81;5264214;28;20038;-70
2022/08/18 04:45:12;;;;;;;41.77;37.63;;;;;;;-150.27;100.00;61272.81;5264120;28;20479;-70
2022/08/18 04:47:43;;;;;;;43.07;38.57;;;;;;;-150.27;100.00;61272.81;5264006;28;20484;-71
2022/08/18 04:50:15;;;;;;;42.70;38.13;;;;;;;-150.27;100.00;61272.81;5272029;28;20070;-71
2022/08/18 04:55:36;;;;;;;44.87;40.13;;;;;;;-150.27;100.00;61272.81;5275023;28;20028;-70
2022/08/18 04:58:07;;;;;;;42.63;38.53;;;;;;;-150.27;100.00;61272.81;5273900;28;20028;-70
2022/08/18 05:00:38;;;;;;;42.93;37.73;;;;;;;-150.27;100.00;61272.81;5255773;28;20776;-70
2022/08/18 05:03:11;;;;;;;43.53;39.00;;;;;;;-150.27;100.00;61272.81;5274318;28;20040;-70
2022/08/18 05:05:42;;;;;;;43.70;39.20;;;;;;;-150.27;100.00;61272.81;5274190;28;20065;-70
2022/08/18 05:08:13;;;;;;;43.13;38.73;;;;;;;-150.27;100.00;61272.81;5273385;28;20658;-71
2022/08/18 05:10:46;;;;;;;41.17;37.13;;;;;;;-150.27;100.00;61272.81;5274816;28;20036;-71
2022/08/18 05:13:18;;;;;;;40.87;36.80;;;;;;;-150.27;100.00;61272.81;5271497;28;20020;-70
2022/08/18 05:15:55;;;;;;;40.33;36.30;;;;;;;-150.27;100.00;61272.81;5255043;28;20413;-70
2022/08/18 05:18:26;;;;;;;41.03;36.63;;;;;;;-150.27;100.00;61272.81;5273943;28;20102;-70
2022/08/18 05:20:59;;;;;;;40.20;35.93;;;;;;;-150.27;100.00;61272.81;5256321;28;20036;-70
2022/08/18 05:23:30;;;;;;;41.97;36.93;;;;;;;-150.27;100.00;61272.81;5277299;28;20031;-70
2022/08/18 05:26:02;;;;;;;44.40;39.73;;;;;;;-150.27;100.00;61272.81;5273908;28;20111;-70
2022/08/18 05:28:36;;;;;;;43.67;39.07;;;;;;;-150.27;100.00;61272.81;5274923;28;20032;-70
2022/08/18 05:31:15;;;;;;;43.28;38.88;;;;;;;-150.27;100.00;61272.81;5273164;28;20031;-69
2022/08/18 05:33:48;;;;;;;43.80;39.40;;;;;;;-150.27;100.00;61272.81;5275472;28;20028;-70
2022/08/18 05:36:22;;;;;;;40.20;35.63;;;;;;;-150.27;100.00;61272.81;5273889;28;20036;-69
2022/08/18 05:38:59;;;;;;;;;;;;;;;-150.27;100.00;61272.81;5274347;28;20025;-70
2022/08/18 05:41:37;;;;;;;42.53;37.63;;;;;;;-150.27;100.00;61272.81;5273272;28;20388;-69
2022/08/18 05:44:13;;;;;;;41.80;37.60;;;;;;;-150.27;100.00;61272.81;5273960;28;20029;-69
2022/08/18 05:46:53;;;;;;;41.93;37.53;;;;;;;-150.27;100.00;61272.81;5254408;28;20099;-70
2022/08/18 05:49:25;;;;;;;41.30;37.03;;;;;;;-150.27;100.00;61272.81;5273678;28;20032;-69
2022/08/18 05:52:00;;;;;;;44.00;39.67;;;;;;;-150.27;100.00;61272.81;5273721;28;20392;-69
2022/08/18 05:58:03;;;;;;;40.03;35.73;;;;;;;-150.27;100.00;61272.81;5272289;28;20068;-70
2022/08/18 06:00:36;;;;;;;42.58;38.05;;;;;;;-150.27;100.00;61272.81;5270766;28;20107;-69
2022/08/18 06:03:14;;;;;;;42.15;37.80;;;;;;;-150.27;100.00;61272.81;5273088;28;20050;-66
2022/08/18 06:05:56;;;;;;;41.00;36.93;;;;;;;-150.27;100.00;61272.81;5273357;28;20020;-67
2022/08/18 06:08:36;;;;;;;40.87;36.47;;;;;;;-150.27;100.00;61272.81;5271237;28;20028;-68
2022/08/18 06:11:08;;;;;;;39.50;35.67;;;;;;;-150.27;100.00;61272.81;5273068;28;20013;-68
2022/08/18 06:13:42;;;;;;;38.10;34.23;;;;;;;-150.27;100.00;61272.81;5272491;28;20703;-69
2022/08/18 06:16:44;;;;;;;36.45;32.85;;;;;;;-150.27;100.00;61272.81;5262806;28;20599;-70
2022/08/18 06:19:33;;;;;;;38.23;34.27;;;;;;;-150.27;100.00;61272.81;5266341;28;20028;-69
2022/08/18 06:22:15;;;;;;;36.20;32.53;;;;;;;-150.27;100.00;61272.81;5270291;28;20036;-69
2022/08/18 06:25:15;;;;;;;36.80;33.30;;;;;;;-150.27;100.00;61272.81;5268435;28;20028;-69
2022/08/18 06:27:59;;;;;;;40.33;33.67;;;;;;;-150.27;100.00;61272.81;5259972;28;20111;-69
2022/08/18 06:30:56;;;;;;;39.10;34.88;;;;;;;-150.27;100.00;61272.81;5266101;28;20029;-69
2022/08/18 06:33:36;;;;;;;37.60;33.30;;;;;;;-150.27;100.00;61272.81;5268448;28;20044;-69
2022/08/18 06:36:17;;;;;;;37.73;33.87;;;;;;;-150.27;100.00;61272.81;5269825;28;20021;-70
2022/08/18 06:39:12;;;;;;;34.90;31.40;;;;;;;-150.27;100.00;61272.81;5270153;28;20100;-70
2022/08/18 06:41:47;;;;;;;;;;;;;;;-150.27;100.00;61272.81;5270960;28;20055;-71
2022/08/18 06:44:30;;;;;;;34.10;30.53;;;;;;;-150.27;100.00;61272.81;5270894;28;19912;-69
2022/08/18 06:47:16;;;;;;;35.63;32.13;;;;;;;-150.27;100.00;61272.81;5262214;28;20028;-69
2022/08/18 06:49:58;;;;;;;35.13;31.77;;;;;;;-150.27;100.00;61272.81;5270539;28;20047;-69
2022/08/18 06:52:34;;;;;;;36.13;32.23;;;;;;;-150.27;100.00;61272.81;5270537;28;20029;-69
2022/08/18 06:55:10;;;;;;;37.40;33.57;;;;;;;-150.27;100.00;61272.81;5269945;28;20029;-69
2022/08/18 06:57:57;;;;;;;37.43;33.63;;;;;;;-150.27;100.00;61272.81;5249514;28;20023;-70
2022/08/18 07:00:32;;;;;;;36.90;33.23;;;;;;;-150.27;100.00;61272.81;5265263;28;20261;-69
2022/08/18 07:03:16;;;;;;;36.17;32.67;;;;;;;-150.27;100.00;61272.81;5269400;28;20056;-69
2022/08/18 07:06:10;;;;;;;34.60;31.17;;;;;;;-150.27;100.00;61272.81;5269882;28;20078;-71
2022/08/18 07:08:43;;;;;;;32.93;29.63;;;;;;;-150.27;100.00;61272.81;5268131;28;20024;-70
2022/08/18 07:11:23;;;;;;;32.20;28.98;;;;;;;-150.27;100.00;61272.81;5269162;28;20027;-71
2022/08/18 07:14:10;;;;;;;32.03;28.77;;;;;;;-150.27;100.00;61272.81;5270120;28;20009;-70
2022/08/18 07:16:42;;;;;;;30.67;27.42;;;;;;;-150.27;100.00;61272.81;5266421;28;20604;-69
2022/08/18 07:19:19;;;;;;;33.13;29.73;;;;;;;-150.27;100.00;61272.81;5251134;28;20032;-71
2022/08/18 07:22:12;;;;;;;30.95;28.05;;;;;;;-150.27;100.00;61272.81;5269836;28;20016;-69
2022/08/18 07:24:48;;;;;;;31.67;26.77;;;;;;;-150.27;100.00;61272.81;5265798;28;20024;-69
2022/08/18 07:27:22;;;;;;;29.58;25.98;;;;;;;-150.27;100.00;61272.81;5267556;28;20435;-67
2022/08/18 07:30:09;;;;;;;;;;;;;;;-150.27;100.00;61272.81;5268274;28;20508;-67
2022/08/18 07:32:58;;;;;;;28.85;25.90;;;;;;;-150.27;100.00;61272.81;5268875;28;20292;-68
2022/08/18 07:35:37;;;;;;;29.98;27.05;;;;;;;-150.27;100.00;61272.81;5269028;28;20031;-67
2022/08/18 07:38:16;;;;;;;30.42;27.38;;;;;;;-150.27;100.00;61272.81;5266254;28;20488;-67
2022/08/18 07:40:59;;;;;;;29.15;26.02;;;;;;;-150.27;100.00;61272.81;5269135;28;20032;-68
2022/08/18 07:43:56;;;;;;;28.90;24.60;;;;;;;-150.27;100.00;61272.81;5250711;28;20127;-68
2022/08/18 07:46:31;;;;;;;25.13;22.92;;;;;;;-150.27;100.00;61272.81;5260615;28;20071;-67
2022/08/18 07:49:05;;;;;;;23.88;21.67;;;;;;;-150.27;100.00;61272.81;5269391;28;20028;-68
2022/08/18 07:51:45;;;;;;;23.60;21.33;;;;;;;-150.27;100.00;61272.81;5251794;28;20366;-68
2022/08/18 07:54:25;;;;;;;22.52;19.45;;;;;;;-150.27;100.00;61272.81;5266601;28;20025;-68
2022/08/18 07:57:20;;;;;;;19.55;17.73;;;;;;;-150.27;100.00;61272.81;5266852;28;20033;-68
2022/08/18 08:00:13;;;;;;;20.05;18.25;;;;;;;-150.27;100.00;61272.81;5250382;28;20024;-68
2022/08/18 08:02:47;;;;;;;19.33;17.38;;;;;;;-150.27;100.00;61272.81;5265861;28;20055;-68
2022/08/18 08:05:37;;;;;;;;;;;;;;;-150.27;100.00;61272.81;5251679;28;20192;-68
2022/08/18 08:08:20;;;;;;;18.83;17.13;;;;;;;-150.27;100.00;61272.81;5253051;28;19920;-67
2022/08/18 08:11:09;;;;;;;19.10;17.20;;;;;;;-150.27;100.00;61272.81;5271454;28;20017;-68
2022/08/18 08:13:49;;;;;;;18.92;17.05;;;;;;;-150.27;100.00;61272.81;5273178;28;20035;-68
2022/08/18 08:16:35;;;;;;;17.30;15.15;;;;;;;-150.27;100.00;61272.81;5263789;28;20020;-69
2022/08/18 08:19:21;;;;;;;17.67;16.10;;;;;;;-150.27;100.00;61272.81;5272762;28;20024;-69
2022/08/18 08:22:02;;;;;;;18.77;16.95;;;;;;;-150.27;100.00;61272.81;5273362;28;20025;-69
2022/08/18 08:25:03;;;;;;;16.98;15.05;;;;;;;-150.27;100.00;61272.81;5273559;28;20187;-69
2022/08/18 08:28:07;;;;;;;16.38;14.98;;;;;;;-150.27;100.00;61272.81;5270954;28;20147;-69
2022/08/18 08:30:54;;;;;;;15.77;14.27;;;;;;;-150.27;100.00;61272.81;5184443;28;20066;-69
2022/08/18 08:33:50;;;;;;;17.10;15.02;;;;;;;-150.27;100.00;61272.81;5272773;28;20328;-69
2022/08/18 08:36:26;;;;;;;15.85;13.65;;;;;;;-150.27;100.00;61272.81;5268866;28;20031;-69
2022/08/18 08:39:03;;;;;;;15.90;14.40;;;;;;;-150.27;100.00;61272.81;5272222;28;20120;-69
2022/08/18 08:41:44;;;;;;;15.48;13.90;;;;;;;-150.27;100.00;61272.81;5272886;28;20507;-69
2022/08/18 08:44:25;;;;;;;16.63;14.82;;;;;;;-150.27;100.00;61272.81;5270185;28;20027;-69
2022/08/18 08:47:02;;;;;;;17.35;15.55;;;;;;;-150.27;100.00;61272.81;5265849;28;20054;-69
2022/08/18 08:49:49;;;;;;;15.05;13.65;;;;;;;-150.27;100.00;61272.81;5273175;28;20029;-69
2022/08/18 08:52:26;;;;;;;15.13;13.60;;;;;;;-150.27;100.00;61272.81;5269995;28;20099;-69
2022/08/18 08:55:03;;;;;;;17.13;14.73;;;;;;;-150.27;100.00;61272.81;5254651;28;20028;-69
2022/08/18 08:57:41;;;;;;;14.27;12.82;;;;;;;-150.27;100.00;61272.81;5270235;28;20020;-69
2022/08/18 09:00:14;;;;;;;14.52;13.27;;;;;;;-150.27;100.00;61272.81;5271179;28;20024;-69
2022/08/18 09:03:05;;;;;;;15.30;13.57;;;;;;;-150.27;100.00;61272.81;5250910;28;20025;-69
2022/08/18 09:05:47;;;;;;;16.55;14.18;;;;;;;-150.27;100.00;61272.81;5254619;28;20433;-69
2022/08/18 09:08:35;;;;;;;14.85;13.50;;;;;;;-150.27;100.00;61272.81;5249870;28;20055;-69
2022/08/18 09:11:13;;;;;;;14.60;13.20;;;;;;;-150.27;100.00;61272.81;5272088;28;20060;-69
2022/08/18 09:13:47;;;;;;;15.20;12.90;;;;;;;-150.27;100.00;61272.81;5254373;28;20086;-69
2022/08/18 09:16:48;;;;;;;15.85;12.93;;;;;;;-150.27;100.00;61272.81;5246814;28;20024;-69
2022/08/18 09:19:46;;;;;;;12.07;11.00;;;;;;;-150.27;100.00;61272.81;5235406;28;20029;-69
2022/08/18 09:22:44;;;;;;;12.75;10.52;;;;;;;-150.27;100.00;61272.81;5270401;28;20464;-69
2022/08/18 09:25:43;;;;;;;11.32;10.20;;;;;;;-150.27;100.00;61272.81;5265535;28;20024;-69
2022/08/18 09:28:17;;;;;;;12.27;10.98;;;;;;;-150.27;100.00;61272.81;5253015;28;20469;-69
2022/08/18 09:31:00;;;;;;;16.10;12.68;;;;;;;-150.27;100.00;61272.81;5271837;28;20074;-69
2022/08/18 09:33:39;;;;;;;11.98;10.77;;;;;;;-150.27;100.00;61272.81;5272920;28;20062;-69
2022/08/18 09:36:31;;;;;;;12.13;9.90;;;;;;;-150.27;100.00;61272.81;5271063;28;20025;-70
2022/08/18 09:42:01;;;;;;;12.25;8.40;;;;;;;-150.27;100.00;61272.81;5272644;28;20040;-69
2022/08/18 09:44:47;;;;;;;9.15;7.65;;;;;;;-150.27;100.00;61272.81;5271270;28;20115;-69
2022/08/18 09:47:19;;;;;;;9.15;7.85;;;;;;;-150.27;100.00;61272.81;5248054;28;20025;-71
2022/08/18 09:49:52;;;;;;;9.10;8.10;;;;;;;-150.27;100.00;61272.81;5271259;28;20024;-68
2022/08/18 09:52:25;;;;;;;9.88;8.88;;;;;;;-150.27;100.00;61272.81;5272887;28;20028;-69
2022/08/18 09:54:56;;;;;;;9.30;8.35;;;;;;;-150.27;100.00;61272.81;5272876;28;20581;-68
2022/08/18 09:57:35;;;;;;;11.65;9.30;;;;;;;-150.27;100.00;61272.81;5270376;28;20024;-69
2022/08/18 10:00:16;;;;;;;10.85;8.73;;;;;;;-150.27;100.00;61272.81;5270733;28;20056;-69
2022/08/18 10:02:47;;;;;;;9.50;8.35;;;;;;;-150.27;100.00;61272.81;5266165;28;20472;-70
2022/08/18 10:05:19;;;;;;;12.90;8.85;;;;;;;-150.27;100.00;61272.81;5266532;28;20028;-69
2022/08/18 10:08:02;;;;;;;10.35;8.90;;;;;;;-150.27;100.00;61272.81;5250695;28;20527;-69
2022/08/18 10:10:43;;;;;;;11.60;8.77;;;;;;;-150.27;100.00;61272.81;5272206;28;20194;-68
2022/08/18 10:13:22;;;;;;;9.90;8.35;;;;;;;-150.27;100.00;61272.81;5255496;28;20027;-69
2022/08/18 10:16:07;;;;;;;10.18;8.77;;;;;;;-150.27;100.00;61272.81;5271386;28;20028;-68
2022/08/18 10:19:00;;;;;;;11.52;8.00;;;;;;;-150.27;100.00;61272.81;5269430;28;20373;-69
2022/08/18 10:22:10;;;;;;;11.15;6.47;;;;;;;-150.27;100.00;61272.81;5253850;28;20105;-67
2022/08/18 10:24:52;;;;;;;8.30;7.18;;;;;;;-150.27;100.00;61272.81;5179117;28;20085;-67
2022/08/18 10:27:43;;;;;;;10.77;7.78;;;;;;;-150.27;100.00;61272.81;5177723;28;20104;-68
2022/08/18 10:30:32;;;;;;;7.97;6.50;;;;;;;-150.27;100.00;61272.81;5246981;28;20497;-71
2022/08/18 10:33:10;;;;;;;7.55;6.75;;;;;;;-150.27;100.00;61272.81;5270864;28;20505;-71
2022/08/18 10:35:57;;;;;;;6.00;5.32;;;;;;;-150.27;100.00;61272.81;5271150;28;20388;-71
2022/08/18 10:38:41;;;;;;;10.70;6.53;;;;;;;-150.27;100.00;61272.81;5267862;28;20450;-71
2022/08/18 10:41:23;;;;;;;6.90;5.97;;;;;;;-150.27;100.00;61272.81;5272372;28;20507;-71
2022/08/18 10:43:55;;;;;;;7.72;6.18;;;;;;;-150.27;100.00;61272.81;5262290;28;20480;-72
2022/08/18 10:46:40;;;;;;;7.80;6.93;;;;;;;-150.27;100.00;61272.81;5262296;28;20036;-71
2022/08/18 10:49:12;;;;;;;;;;;;;;;-150.27;100.00;61272.81;5267515;28;20024;-72
2022/08/18 10:51:52;;;;;;;6.88;6.13;;;;;;;-150.27;100.00;61272.81;5261639;28;19923;-72
2022/08/18 10:55:11;;;;;;;7.57;6.57;;;;;;;-150.27;100.00;61272.81;5266738;28;20044;-72
2022/08/18 10:58:02;;;;;;;9.90;7.82;;;;;;;-150.27;100.00;61272.81;5255350;28;20040;-72
2022/08/18 11:01:19;;;;;;;7.15;6.45;;;;;;;-150.27;100.00;61272.81;5267608;28;20335;-71
2022/08/18 11:03:59;;;;;;;9.68;7.18;;;;;;;-150.27;100.00;61272.81;5270835;28;20053;-73
2022/08/18 11:06:40;;;;;;;7.85;6.82;;;;;;;-150.27;100.00;61272.81;5268900;28;20029;-72
2022/08/18 11:09:12;;;;;;;7.38;6.20;;;;;;;-150.27;100.00;61272.81;5271219;28;20141;-74
2022/08/18 11:11:43;;;;;;;8.77;7.35;;;;;;;-150.27;100.00;61272.81;5271008;28;20048;-72
2022/08/18 11:14:18;;;;;;;9.77;7.55;;;;;;;-150.27;100.00;61272.81;5252783;28;20024;-71
2022/08/18 11:17:22;;;;;;;7.72;6.95;;;;;;;-150.27;100.00;61272.81;5268640;28;20035;-73
2022/08/18 11:19:54;;;;;;;8.07;7.30;;;;;;;-150.27;100.00;61272.81;5252998;28;20047;-74
2022/08/18 11:22:31;;;;;;;8.13;7.28;;;;;;;-150.27;100.00;61272.81;5270106;28;20032;-70
2022/08/18 11:25:18;;;;;;;8.60;7.70;;;;;;;-150.27;100.00;61272.81;5262048;28;20028;-74
2022/08/18 11:27:49;;;;;;;12.70;7.20;;;;;;;-150.27;100.00;61272.81;5262324;28;20502;-72
2022/08/18 11:30:25;;;;;;;8.80;7.43;;;;;;;-150.27;100.00;61272.81;5269399;28;20028;-72
2022/08/18 11:32:58;;;;;;;8.38;7.38;;;;;;;-150.27;100.00;61272.81;5252657;28;20032;-72
2022/08/18 11:35:44;;;;;;;9.98;7.65;;;;;;;-150.27;100.00;61272.81;5271618;28;20021;-72
2022/08/18 11:38:18;;;;;;;8.52;6.40;;;;;;;-150.27;100.00;61272.81;5267348;28;20016;-71
2022/08/18 11:40:53;;;;;;;;;;;;;;;-150.27;100.00;61272.81;5270333;28;20493;-75
2022/08/18 11:43:33;;;;;;;7.82;7.03;;;;;;;-150.27;100.00;61272.81;5270365;28;19956;-76
2022/08/18 11:46:20;;;;;;;7.82;6.30;;;;;;;-150.27;100.00;61272.81;5269281;28;20104;-76
2022/08/18 11:48:52;;;;;;;8.50;7.70;;;;;;;-150.27;100.00;61272.81;5271103;28;20040;-76
2022/08/18 11:51:32;;;;;;;11.05;7.13;;;;;;;-150.27;100.00;61272.81;5270246;28;20052;-75
2022/08/18 11:54:10;;;;;;;8.45;7.63;;;;;;;-150.27;100.00;61272.81;5265366;28;20418;-76
2022/08/18 11:56:41;;;;;;;7.32;6.25;;;;;;;-150.27;100.00;61272.81;5267953;28;20031;-74
2022/08/18 11:59:24;;;;;;;8.25;7.07;;;;;;;-150.27;100.00;61272.81;5251420;28;20029;-75
2022/08/18 12:01:58;;;;;;;7.80;6.97;;;;;;;-150.27;100.00;61272.81;5270448;28;20025;-75
2022/08/18 12:04:38;;;;;;;7.93;6.93;;;;;;;-150.27;100.00;61272.81;5270227;28;20550;-74